Sadiqabad Weather



Sadiqabad's Current Weather

Temprature 40.91o overcast clouds

overcast clouds

Rain: 0 %

Min Temprature40.91o
Max Temprature40.91o
Humidity12
Wind Speed3.48 m/h
Sun Rise05:33:50
Sun Set18:58:07
Current Time: 08-May-2021 14:34:00
Lat/Lon: 28.3062, 70.1307




Sadiqabad's Geo Location



Sadiqabad's Weather Forecast

Time Overall Temp Min Temp Max Temp Humidity Wind Speed Rain
08-May-2021 (Sat)
17:00:00 overcast clouds 40.660 40.660 40.800 12 2.8 m/h 0 %
20:00:00 broken clouds 38.730 37.800 38.730 14 2.6 m/h 0 %
23:00:00 broken clouds 33.400 33.400 33.400 24 5.92 m/h 0 %
09-May-2021 (Sun)
02:00:00 overcast clouds 31.510 31.510 31.510 28 4 m/h 0 %
05:00:00 overcast clouds 30.290 30.290 30.290 30 3.33 m/h 0 %
08:00:00 few clouds 34.830 34.830 34.830 20 3.08 m/h 0 %
11:00:00 clear sky 40.070 40.070 40.070 13 2.19 m/h 0 %
14:00:00 scattered clouds 42.650 42.650 42.650 10 4.44 m/h 0 %
17:00:00 scattered clouds 41.990 41.990 41.990 10 5.8 m/h 0 %
20:00:00 broken clouds 38.740 38.740 38.740 13 4.08 m/h 0 %
23:00:00 broken clouds 35.340 35.340 35.340 20 4.35 m/h 0 %
10-May-2021 (Mon)
02:00:00 scattered clouds 33.640 33.640 33.640 23 4.54 m/h 0 %
05:00:00 broken clouds 31.910 31.910 31.910 27 2.49 m/h 0 %
08:00:00 scattered clouds 34.760 34.760 34.760 22 4.27 m/h 0 %
11:00:00 scattered clouds 40.100 40.100 40.100 16 4.15 m/h 0 %
14:00:00 few clouds 42.800 42.800 42.800 12 4.67 m/h 0 %
17:00:00 light rain 33.410 33.410 33.410 27 12.42 m/h 16 %
20:00:00 overcast clouds 33.850 33.850 33.850 24 6.29 m/h 0 %
23:00:00 broken clouds 33.260 33.260 33.260 26 4.82 m/h 0 %
11-May-2021 (Tue)
02:00:00 scattered clouds 31.800 31.800 31.800 31 3.59 m/h 0 %
05:00:00 scattered clouds 30.070 30.070 30.070 41 4.17 m/h 0 %
08:00:00 clear sky 31.970 31.970 31.970 42 4.99 m/h 0 %
11:00:00 clear sky 39.120 39.120 39.120 22 3.49 m/h 0 %
14:00:00 clear sky 42.770 42.770 42.770 13 3.03 m/h 0 %
17:00:00 clear sky 43.180 43.180 43.180 10 4.07 m/h 0 %
20:00:00 light rain 36.360 36.360 36.360 19 2.51 m/h 18 %
23:00:00 light rain 34.880 34.880 34.880 23 4.89 m/h 54 %
12-May-2021 (Wed)
02:00:00 light rain 33.940 33.940 33.940 24 2.94 m/h 82 %
05:00:00 overcast clouds 32.570 32.570 32.570 29 5.03 m/h 0 %
08:00:00 scattered clouds 33.980 33.980 33.980 32 5.03 m/h 0 %
11:00:00 broken clouds 38.390 38.390 38.390 21 2.29 m/h 0 %
14:00:00 scattered clouds 41.440 41.440 41.440 14 3.47 m/h 0 %
17:00:00 few clouds 41.780 41.780 41.780 13 2.59 m/h 0 %
20:00:00 light rain 33.690 33.690 33.690 28 10.6 m/h 38 %
23:00:00 light rain 32.200 32.200 32.200 31 7 m/h 12 %
13-May-2021 (Thu)
02:00:00 clear sky 30.110 30.110 30.110 39 6.4 m/h 0 %
05:00:00 clear sky 28.810 28.810 28.810 42 4.9 m/h 0 %
08:00:00 clear sky 31.450 31.450 31.450 35 5.01 m/h 0 %
11:00:00 clear sky 36.340 36.340 36.340 25 3.85 m/h 0 %
14:00:00 clear sky 39.610 39.610 39.610 17 2.5 m/h 0 %


Sadiqabad's Tourist Spots

Historical Places in Sadiqabad

Famous Cities (60)